EDTLLFGA

Guest
Details From EDTL - LAHR
To LFGA - Houssen
Flight Number -
Tags generated
Created
Modified
Stats Distance 26 nm / 48 km
Max Altitude 2,700 ft / 823 m
Waypoints 3
Social Downloads 0
Likes 0
Share VATSIM

Download

Looking for another format? Having issues loading an existing format? Contact us
Advertisement - Login to hide

Notes

Basic altitude profile: - Ascent Rate: 2500ft/min - Ascent Speed: 250kts - Cruise Altitude: 35000ft - Cruise Speed: 420kts - Descent Rate: 1500ft/min - Descent Speed: 250kts Options: - Use NATs: yes - Use PACOTS: yes - Use low airways: yes - Use high airways: yes

Route

EDTL RUSTI LFGA

ID Type Via Altitude Latitude Longitude Leg Dist Tot Dist Heading (true) Name
O EDTL APT - 0 ft / 0 m 48.36925˚ 7.82772˚ - 0 nm - LAHR
RUSTI FIX - 2,700 ft / 823 m 48.17667˚ 7.66000˚ 13 nm 13 nm 210° / 210° -
O LFGA APT - 0 ft / 0 m 48.10970˚ 7.35897˚ 12 nm 26 nm 252° / 251° Houssen

Altitude Profile

Advertisement - Login to hide

EDTL

Details ICAO EDTL (LHA)
Name LAHR
Region Germany - Civil
Timezone Europe/Berlin (UTC+1.0)
Stats Elevation 511 ft / 156 m (AMSL)
Location 48.369251° 7.827725°
Runways 1
Magnetic Variation 2.160° E

METAR

EDTL 180850Z 18011KT 9999 SCT010 BKN030 01/01 Q1020

Decode

TAF

Not found

Departure Runways

ID Width Length Bearing (true) Bearing (mag) Surface Threshold Offset Overrun Length
03 148 ft / 45 m 9,837 ft / 2,998 m 28.21° 26.05° Asphalt 0 ft / 0 m 837 ft / 255 m
21 148 ft / 45 m 9,837 ft / 2,998 m 208.23° 206.07° Asphalt 0 ft / 0 m 886 ft / 270 m

LFGA

Details ICAO LFGA (CMR)
Name Houssen
Region France
Timezone Europe/Paris (UTC+1.0)
Stats Elevation 627 ft / 191 m (AMSL)
Location 48.109701° 7.358965°
Runways 1
Magnetic Variation 2.038° E

METAR

LFGA 180900Z AUTO 14003KT 100V170 9999 FEW041 BKN072 OVC092 02/00 Q1020

Decode

TAF

Not found

Destination Runways

ID Width Length Bearing (true) Bearing (mag) Surface Threshold Offset Overrun Length
01 98 ft / 30 m 5,298 ft / 1,615 m 10.98° 8.94° Asphalt 689 ft / 210 m 0 ft / 0 m
19 98 ft / 30 m 5,298 ft / 1,615 m 190.98° 188.94° Asphalt 0 ft / 0 m 0 ft / 0 m

Approach Navaids

Runway Type Ident Frequency Range Bearing (true) Bearing (mag) Slope Elevation
19 Localiser HO 110.70 MHz 18 nm / 33 km 191.00° 188.96° - 627 ft / 191 m (AMSL)
19 Glidescope HO 110.70 MHz 10 nm / 19 km 190.98° 188.94° 3.80° 627 ft / 191 m (AMSL)